»·PEaware :: DAL143 KDEN-KAMA

DAL143 :: KDEN-KAMA

FLIGHT INFORMATION

Flight Status: Arrived
Operator:
Delta Air Lines
More flights by this operator :: More flights under this callsign
Pilot: Brian M. (10491)
Aircraft: AIRBUS A320
(A320)
More flights by this aircraft type
Origin: KDEN Denver Intl
United States
Destination: KAMA Amarillo Intl
United States
More flights between these airports :: More routes between these airports
Route: STAKR3 PYPER KENTO PNH
File this flight plan on PilotEdge
Remarks: PBN / A1B1C1D1O1S1 DOF / 170906 REG / N320SB EET / KZAB0024 RMK / TCAS SIMBRIEF
Altitude:
(Current/Filed)
37,000ft
Speed:
(Current/Filed)
427kts
Departed: 06-Sep-17 08:36 AM
Arrived: 06-Sep-17 09:40 AM
Distance/Time
Traveled:
312nm/1:04
Distance/Time
To Go:
Arrived

Flight Plot

Page will automatically refresh every two minutes.

Flight plan parsing failed; only flown route is shown


Map Options




Map Legend


Flown Route
Filed Route
Departure Airport
Arrival Airport
Navaid (VOR, NDB)
Fix

Horizontal Profiles

Position Reports

Time Latitude Longitude Heading Altitude Ground
Speed
06-Sep-17 08:19 39.859499 -104.679520 170 5324ft 0kts
06-Sep-17 08:20 39.859499 -104.679520 170 5324ft 0kts
06-Sep-17 08:21 39.859499 -104.679520 170 5324ft 0kts
06-Sep-17 08:22 39.859499 -104.679520 170 5324ft 0kts
06-Sep-17 08:23 39.859499 -104.679520 170 5324ft 0kts
06-Sep-17 08:24 39.859499 -104.679520 170 5324ft 0kts
06-Sep-17 08:25 39.859499 -104.679520 170 5324ft 0kts
06-Sep-17 08:26 39.859499 -104.679520 170 5324ft 0kts
06-Sep-17 08:27 39.859499 -104.679520 170 5324ft 0kts
06-Sep-17 08:28 39.859499 -104.679520 170 5324ft 0kts
06-Sep-17 08:29 39.859499 -104.679520 170 5324ft 0kts
06-Sep-17 08:30 39.859499 -104.679520 170 5324ft 0kts
06-Sep-17 08:31 39.859903 -104.679286 243 5324ft 2kts
06-Sep-17 08:32 39.859940 -104.678524 272 5324ft 2kts
06-Sep-17 08:33 39.859937 -104.678447 272 5324ft 0kts
06-Sep-17 08:34 39.860453 -104.679587 313 5324ft 14kts
06-Sep-17 08:35 39.860295 -104.682953 268 5324ft 10kts
06-Sep-17 08:36 39.862056 -104.685093 0 5324ft 18kts
06-Sep-17 08:37 39.864252 -104.685615 276 5324ft 0kts
06-Sep-17 08:38 39.864252 -104.685615 276 5324ft 0kts
06-Sep-17 08:39 39.864396 -104.687013 313 5324ft 16kts
06-Sep-17 08:40 39.875389 -104.687131 0 5324ft 125kts
06-Sep-17 08:41 39.914776 -104.701622 292 6685ft 190kts
06-Sep-17 08:42 39.892171 -104.774767 222 8771ft 270kts
06-Sep-17 08:43 39.831240 -104.837030 234 10034ft 327kts
06-Sep-17 08:44 39.764870 -104.916979 195 11278ft 342kts
06-Sep-17 08:45 39.666931 -104.915182 171 13639ft 376kts
06-Sep-17 08:46 39.568879 -104.865684 152 16241ft 394kts
06-Sep-17 08:47 39.469153 -104.802554 159 18576ft 412kts
06-Sep-17 08:48 39.362923 -104.733108 137 20124ft 446kts
06-Sep-17 08:49 39.270395 -104.623514 136 22100ft 462kts
06-Sep-17 08:50 39.175531 -104.510217 136 23897ft 476kts
06-Sep-17 08:51 39.057896 -104.439413 167 25499ft 485kts
06-Sep-17 08:52 38.926818 -104.402138 169 27142ft 492kts
06-Sep-17 08:53 38.794225 -104.365514 168 28486ft 500kts
06-Sep-17 08:54 38.660210 -104.319941 149 29607ft 511kts
06-Sep-17 08:55 38.551104 -104.203395 136 30679ft 517kts
06-Sep-17 08:56 38.452621 -104.073366 131 32086ft 511kts
06-Sep-17 08:57 38.357151 -103.949655 156 34438ft 476kts
06-Sep-17 08:58 38.241312 -103.878179 136 35049ft 482kts
06-Sep-17 08:59 38.140531 -103.768804 140 35928ft 479kts
06-Sep-17 09:00 38.035965 -103.675765 161 36964ft 458kts
06-Sep-17 09:01 37.917640 -103.621581 161 37321ft 463kts
06-Sep-17 09:02 37.796195 -103.567134 161 35553ft 476kts
06-Sep-17 09:03 37.669546 -103.510561 161 33105ft 489kts
06-Sep-17 09:04 37.544118 -103.454741 161 30698ft 485kts
06-Sep-17 09:05 37.438980 -103.408103 161 28674ft 486kts
06-Sep-17 09:06 37.312494 -103.352179 161 26262ft 490kts
06-Sep-17 09:07 37.185739 -103.296204 162 24305ft 486kts
06-Sep-17 09:08 37.071146 -103.245856 162 24013ft 398kts
06-Sep-17 09:09 36.968295 -103.200861 162 22336ft 388kts
06-Sep-17 09:10 36.869640 -103.157181 161 20380ft 378kts
06-Sep-17 09:11 36.773161 -103.114489 161 18403ft 367kts
06-Sep-17 09:12 36.688265 -103.051522 144 16452ft 358kts
06-Sep-17 09:13 36.610530 -102.979053 143 14492ft 350kts
06-Sep-17 09:14 36.534759 -102.908228 143 12498ft 336kts
06-Sep-17 09:15 36.462404 -102.840732 143 11008ft 324kts
06-Sep-17 09:16 36.390065 -102.773438 143 11003ft 328kts
06-Sep-17 09:17 36.317401 -102.705989 143 11009ft 329kts
06-Sep-17 09:18 36.244996 -102.638940 143 11010ft 329kts
06-Sep-17 09:19 36.172157 -102.571649 143 11010ft 329kts
06-Sep-17 09:20 36.098982 -102.503096 142 11015ft 354kts
06-Sep-17 09:21 36.021428 -102.430436 142 11008ft 351kts
06-Sep-17 09:22 35.944489 -102.358537 142 11005ft 351kts
06-Sep-17 09:23 35.868747 -102.287876 143 11002ft 350kts
06-Sep-17 09:24 35.791543 -102.216133 143 11000ft 350kts
06-Sep-17 09:25 35.714215 -102.144412 143 11000ft 350kts
06-Sep-17 09:26 35.637347 -102.073292 143 11001ft 350kts
06-Sep-17 09:27 35.561822 -102.003283 143 10999ft 325kts
06-Sep-17 09:28 35.489961 -101.936337 143 11000ft 327kts
06-Sep-17 09:29 35.455400 -101.843997 88 11049ft 322kts
06-Sep-17 09:30 35.413063 -101.748825 125 10503ft 319kts
06-Sep-17 09:31 35.359689 -101.673458 165 9018ft 279kts
06-Sep-17 09:32 35.326733 -101.724811 309 7317ft 249kts
06-Sep-17 09:33 35.391232 -101.749331 345 5995ft 239kts
06-Sep-17 09:34 35.426151 -101.702015 125 6019ft 249kts
06-Sep-17 09:35 35.394183 -101.636448 63 5876ft 254kts
06-Sep-17 09:36 35.432714 -101.566321 40 4982ft 243kts
06-Sep-17 09:37 35.472039 -101.596728 249 5116ft 230kts
06-Sep-17 09:38 35.425888 -101.635837 185 5119ft 206kts
06-Sep-17 09:39 35.371895 -101.632206 170 5071ft 170kts
06-Sep-17 09:40 35.329675 -101.605797 162 5101ft 172kts
06-Sep-17 09:41 35.291312 -101.623511 226 4968ft 158kts
06-Sep-17 09:42 35.262611 -101.659061 228 4359ft 147kts
06-Sep-17 09:43 35.234971 -101.695142 224 3759ft 139kts
06-Sep-17 09:44 35.219711 -101.712696 136 3614ft 20kts
06-Sep-17 09:45 35.219333 -101.712261 135 3614ft 15kts
06-Sep-17 09:46 35.220157 -101.708590 44 3614ft 14kts
06-Sep-17 09:47 35.219465 -101.706239 143 3614ft 0kts
06-Sep-17 09:48 35.219465 -101.706239 143 3614ft 0kts
06-Sep-17 09:49 35.219465 -101.706239 143 3614ft 0kts
06-Sep-17 09:50 35.219465 -101.706239 143 3614ft 0kts
06-Sep-17 09:51 35.219465 -101.706239 143 3614ft 0kts
06-Sep-17 09:52 35.219465 -101.706239 143 3614ft 0kts

Navigation Log

Ident Type
Flight plan parsing failed, navigation log unavailable